sensor_id;sensor_type;location;lat;lon;timestamp;P1;durP1;ratioP1;P2;durP2;ratioP2
48665;SDS011;34452;50.796;4.994;2023-08-06T00:00:37;6.07;;;1.23;;
48665;SDS011;34452;50.796;4.994;2023-08-06T00:05:29;9.93;;;2.63;;
48665;SDS011;34452;50.796;4.994;2023-08-06T00:07:55;15.32;;;1.63;;
48665;SDS011;34452;50.796;4.994;2023-08-06T00:10:21;3.08;;;1.05;;
48665;SDS011;34452;50.796;4.994;2023-08-06T00:12:47;3.00;;;1.13;;
48665;SDS011;34452;50.796;4.994;2023-08-06T00:15:13;3.33;;;0.90;;
48665;SDS011;34452;50.796;4.994;2023-08-06T00:17:39;8.63;;;1.75;;
48665;SDS011;34452;50.796;4.994;2023-08-06T00:20:05;8.95;;;1.40;;
48665;SDS011;34452;50.796;4.994;2023-08-06T00:22:32;14.50;;;1.20;;
48665;SDS011;34452;50.796;4.994;2023-08-06T00:25:00;2.85;;;0.80;;
48665;SDS011;34452;50.796;4.994;2023-08-06T00:29:52;6.00;;;0.88;;
48665;SDS011;34452;50.796;4.994;2023-08-06T00:32:18;2.58;;;0.50;;
48665;SDS011;34452;50.796;4.994;2023-08-06T00:34:44;4.30;;;1.00;;
48665;SDS011;34452;50.796;4.994;2023-08-06T00:37:09;4.82;;;0.57;;
48665;SDS011;34452;50.796;4.994;2023-08-06T00:39:35;1.92;;;0.50;;
48665;SDS011;34452;50.796;4.994;2023-08-06T00:42:01;5.00;;;0.50;;
48665;SDS011;34452;50.796;4.994;2023-08-06T00:44:27;4.15;;;0.50;;
48665;SDS011;34452;50.796;4.994;2023-08-06T00:46:52;4.65;;;0.55;;
48665;SDS011;34452;50.796;4.994;2023-08-06T00:49:18;2.35;;;0.63;;
48665;SDS011;34452;50.796;4.994;2023-08-06T00:51:45;7.75;;;0.77;;
48665;SDS011;34452;50.796;4.994;2023-08-06T00:54:10;2.53;;;0.47;;
48665;SDS011;34452;50.796;4.994;2023-08-06T00:56:36;3.88;;;0.60;;
48665;SDS011;34452;50.796;4.994;2023-08-06T00:59:03;1.95;;;0.55;;
48665;SDS011;34452;50.796;4.994;2023-08-06T01:01:30;5.18;;;0.47;;
48665;SDS011;34452;50.796;4.994;2023-08-06T01:03:55;3.85;;;0.70;;
48665;SDS011;34452;50.796;4.994;2023-08-06T01:06:23;1.83;;;0.50;;
48665;SDS011;34452;50.796;4.994;2023-08-06T01:09:21;2.13;;;0.40;;
48665;SDS011;34452;50.796;4.994;2023-08-06T01:17:42;3.28;;;0.50;;
48665;SDS011;34452;50.796;4.994;2023-08-06T01:20:10;4.88;;;0.68;;
48665;SDS011;34452;50.796;4.994;2023-08-06T01:22:36;0.95;;;0.65;;
48665;SDS011;34452;50.796;4.994;2023-08-06T01:25:02;1.80;;;0.60;;
48665;SDS011;34452;50.796;4.994;2023-08-06T01:27:28;2.25;;;0.63;;
48665;SDS011;34452;50.796;4.994;2023-08-06T01:32:49;0.98;;;0.55;;
48665;SDS011;34452;50.796;4.994;2023-08-06T01:35:17;3.63;;;0.55;;
48665;SDS011;34452;50.796;4.994;2023-08-06T01:37:44;1.55;;;0.60;;
48665;SDS011;34452;50.796;4.994;2023-08-06T01:40:12;5.47;;;0.73;;
48665;SDS011;34452;50.796;4.994;2023-08-06T01:42:39;0.82;;;0.60;;
48665;SDS011;34452;50.796;4.994;2023-08-06T01:45:06;1.27;;;0.60;;
48665;SDS011;34452;50.796;4.994;2023-08-06T01:47:32;10.80;;;1.00;;
48665;SDS011;34452;50.796;4.994;2023-08-06T01:49:58;4.28;;;0.80;;
48665;SDS011;34452;50.796;4.994;2023-08-06T01:52:24;2.25;;;0.90;;
48665;SDS011;34452;50.796;4.994;2023-08-06T01:54:50;3.45;;;0.90;;
48665;SDS011;34452;50.796;4.994;2023-08-06T01:57:16;5.60;;;1.13;;
48665;SDS011;34452;50.796;4.994;2023-08-06T01:59:41;18.85;;;1.80;;
48665;SDS011;34452;50.796;4.994;2023-08-06T02:02:07;5.65;;;1.27;;
48665;SDS011;34452;50.796;4.994;2023-08-06T02:04:33;4.65;;;1.67;;
48665;SDS011;34452;50.796;4.994;2023-08-06T02:06:59;9.02;;;1.63;;
48665;SDS011;34452;50.796;4.994;2023-08-06T02:09:24;8.18;;;1.77;;
48665;SDS011;34452;50.796;4.994;2023-08-06T02:11:50;4.18;;;1.60;;
48665;SDS011;34452;50.796;4.994;2023-08-06T02:14:16;6.43;;;2.38;;
48665;SDS011;34452;50.796;4.994;2023-08-06T02:16:42;10.63;;;2.35;;
48665;SDS011;34452;50.796;4.994;2023-08-06T02:19:08;9.40;;;2.67;;
48665;SDS011;34452;50.796;4.994;2023-08-06T02:21:33;6.53;;;3.08;;
48665;SDS011;34452;50.796;4.994;2023-08-06T02:23:59;7.63;;;2.08;;
48665;SDS011;34452;50.796;4.994;2023-08-06T02:26:25;9.70;;;3.13;;
48665;SDS011;34452;50.796;4.994;2023-08-06T02:28:51;9.07;;;3.30;;
48665;SDS011;34452;50.796;4.994;2023-08-06T02:31:17;13.30;;;3.50;;
48665;SDS011;34452;50.796;4.994;2023-08-06T02:33:43;12.23;;;4.22;;
48665;SDS011;34452;50.796;4.994;2023-08-06T02:36:08;8.13;;;4.10;;
48665;SDS011;34452;50.796;4.994;2023-08-06T02:38:34;7.55;;;4.20;;
48665;SDS011;34452;50.796;4.994;2023-08-06T02:43:41;8.23;;;3.50;;
48665;SDS011;34452;50.796;4.994;2023-08-06T02:46:07;10.68;;;4.15;;
48665;SDS011;34452;50.796;4.994;2023-08-06T02:48:32;9.40;;;3.60;;
48665;SDS011;34452;50.796;4.994;2023-08-06T02:50:58;11.27;;;4.47;;
48665;SDS011;34452;50.796;4.994;2023-08-06T02:55:50;11.13;;;3.40;;
48665;SDS011;34452;50.796;4.994;2023-08-06T02:58:17;10.40;;;4.03;;
48665;SDS011;34452;50.796;4.994;2023-08-06T03:01:02;7.63;;;3.05;;
48665;SDS011;34452;50.796;4.994;2023-08-06T03:03:30;6.65;;;3.33;;
48665;SDS011;34452;50.796;4.994;2023-08-06T03:08:22;7.85;;;3.47;;
48665;SDS011;34452;50.796;4.994;2023-08-06T03:10:49;7.63;;;2.85;;
48665;SDS011;34452;50.796;4.994;2023-08-06T03:13:16;12.60;;;3.50;;
48665;SDS011;34452;50.796;4.994;2023-08-06T03:15:42;9.52;;;2.92;;
48665;SDS011;34452;50.796;4.994;2023-08-06T03:18:08;9.55;;;3.08;;
48665;SDS011;34452;50.796;4.994;2023-08-06T03:20:34;5.63;;;2.25;;
48665;SDS011;34452;50.796;4.994;2023-08-06T03:23:00;12.35;;;2.97;;
48665;SDS011;34452;50.796;4.994;2023-08-06T03:25:25;7.15;;;2.40;;
48665;SDS011;34452;50.796;4.994;2023-08-06T03:27:51;3.45;;;1.92;;
48665;SDS011;34452;50.796;4.994;2023-08-06T03:30:17;6.90;;;2.50;;
48665;SDS011;34452;50.796;4.994;2023-08-06T03:32:42;10.93;;;2.20;;
48665;SDS011;34452;50.796;4.994;2023-08-06T03:35:08;8.35;;;2.15;;
48665;SDS011;34452;50.796;4.994;2023-08-06T03:37:34;8.23;;;2.63;;
48665;SDS011;34452;50.796;4.994;2023-08-06T03:40:00;7.35;;;2.28;;
48665;SDS011;34452;50.796;4.994;2023-08-06T03:42:25;11.88;;;2.13;;
48665;SDS011;34452;50.796;4.994;2023-08-06T03:44:51;6.57;;;2.15;;
48665;SDS011;34452;50.796;4.994;2023-08-06T03:47:17;13.23;;;2.55;;
48665;SDS011;34452;50.796;4.994;2023-08-06T03:49:43;4.97;;;2.05;;
48665;SDS011;34452;50.796;4.994;2023-08-06T03:52:08;8.23;;;2.22;;
48665;SDS011;34452;50.796;4.994;2023-08-06T03:54:34;8.50;;;1.75;;
48665;SDS011;34452;50.796;4.994;2023-08-06T03:57:00;3.70;;;1.77;;
48665;SDS011;34452;50.796;4.994;2023-08-06T03:59:26;5.07;;;1.85;;
48665;SDS011;34452;50.796;4.994;2023-08-06T04:01:51;8.45;;;1.92;;
48665;SDS011;34452;50.796;4.994;2023-08-06T04:04:17;8.50;;;1.77;;
48665;SDS011;34452;50.796;4.994;2023-08-06T04:06:43;6.00;;;2.25;;
48665;SDS011;34452;50.796;4.994;2023-08-06T04:09:08;3.75;;;2.00;;
48665;SDS011;34452;50.796;4.994;2023-08-06T04:11:34;6.13;;;2.55;;
48665;SDS011;34452;50.796;4.994;2023-08-06T04:14:00;9.30;;;2.05;;
48665;SDS011;34452;50.796;4.994;2023-08-06T04:16:26;4.50;;;2.08;;
48665;SDS011;34452;50.796;4.994;2023-08-06T04:18:51;8.32;;;2.35;;
48665;SDS011;34452;50.796;4.994;2023-08-06T04:21:18;11.05;;;2.40;;
48665;SDS011;34452;50.796;4.994;2023-08-06T04:23:44;8.07;;;2.40;;
48665;SDS011;34452;50.796;4.994;2023-08-06T04:26:10;6.85;;;2.58;;
48665;SDS011;34452;50.796;4.994;2023-08-06T04:28:36;9.52;;;2.58;;
48665;SDS011;34452;50.796;4.994;2023-08-06T04:31:01;7.10;;;2.47;;
48665;SDS011;34452;50.796;4.994;2023-08-06T04:33:27;8.02;;;3.35;;
48665;SDS011;34452;50.796;4.994;2023-08-06T04:35:54;14.07;;;4.30;;
48665;SDS011;34452;50.796;4.994;2023-08-06T04:38:23;11.60;;;4.72;;
48665;SDS011;34452;50.796;4.994;2023-08-06T04:40:50;15.15;;;4.65;;
48665;SDS011;34452;50.796;4.994;2023-08-06T04:43:16;15.63;;;6.22;;
48665;SDS011;34452;50.796;4.994;2023-08-06T04:45:55;16.10;;;6.07;;
48665;SDS011;34452;50.796;4.994;2023-08-06T04:48:40;15.65;;;6.95;;
48665;SDS011;34452;50.796;4.994;2023-08-06T04:51:06;10.20;;;6.85;;
48665;SDS011;34452;50.796;4.994;2023-08-06T04:53:32;14.00;;;7.15;;
48665;SDS011;34452;50.796;4.994;2023-08-06T04:55:57;16.40;;;8.57;;
48665;SDS011;34452;50.796;4.994;2023-08-06T04:58:23;15.05;;;8.35;;
48665;SDS011;34452;50.796;4.994;2023-08-06T05:00:49;22.73;;;10.18;;
48665;SDS011;34452;50.796;4.994;2023-08-06T05:03:15;15.00;;;9.25;;
48665;SDS011;34452;50.796;4.994;2023-08-06T05:05:40;22.38;;;10.35;;
48665;SDS011;34452;50.796;4.994;2023-08-06T05:08:06;13.15;;;8.70;;
48665;SDS011;34452;50.796;4.994;2023-08-06T05:10:32;19.30;;;8.98;;
48665;SDS011;34452;50.796;4.994;2023-08-06T05:12:58;19.17;;;10.73;;
48665;SDS011;34452;50.796;4.994;2023-08-06T05:15:24;21.92;;;10.82;;
48665;SDS011;34452;50.796;4.994;2023-08-06T05:17:50;21.10;;;10.48;;
48665;SDS011;34452;50.796;4.994;2023-08-06T05:20:16;14.60;;;7.25;;
48665;SDS011;34452;50.796;4.994;2023-08-06T05:22:42;7.95;;;4.55;;
48665;SDS011;34452;50.796;4.994;2023-08-06T05:25:08;3.80;;;1.15;;
48665;SDS011;34452;50.796;4.994;2023-08-06T05:27:34;5.10;;;0.50;;
48665;SDS011;34452;50.796;4.994;2023-08-06T05:30:00;0.52;;;0.40;;
48665;SDS011;34452;50.796;4.994;2023-08-06T05:32:25;2.85;;;0.70;;
48665;SDS011;34452;50.796;4.994;2023-08-06T05:34:51;0.35;;;0.22;;
48665;SDS011;34452;50.796;4.994;2023-08-06T05:37:17;2.63;;;0.20;;
48665;SDS011;34452;50.796;4.994;2023-08-06T05:39:43;2.00;;;0.30;;
48665;SDS011;34452;50.796;4.994;2023-08-06T05:42:08;7.60;;;0.50;;
48665;SDS011;34452;50.796;4.994;2023-08-06T05:44:34;5.25;;;0.52;;
48665;SDS011;34452;50.796;4.994;2023-08-06T05:47:00;3.63;;;0.63;;
48665;SDS011;34452;50.796;4.994;2023-08-06T05:49:26;1.20;;;1.00;;
48665;SDS011;34452;50.796;4.994;2023-08-06T05:51:51;3.13;;;1.80;;
48665;SDS011;34452;50.796;4.994;2023-08-06T05:54:18;4.55;;;2.53;;
48665;SDS011;34452;50.796;4.994;2023-08-06T05:56:44;4.60;;;2.20;;
48665;SDS011;34452;50.796;4.994;2023-08-06T05:59:10;4.87;;;2.67;;
48665;SDS011;34452;50.796;4.994;2023-08-06T06:01:36;7.65;;;3.40;;
48665;SDS011;34452;50.796;4.994;2023-08-06T06:04:01;9.13;;;3.20;;
48665;SDS011;34452;50.796;4.994;2023-08-06T06:06:27;7.38;;;3.67;;
48665;SDS011;34452;50.796;4.994;2023-08-06T06:08:53;10.00;;;4.30;;
48665;SDS011;34452;50.796;4.994;2023-08-06T06:11:19;9.93;;;3.70;;
48665;SDS011;34452;50.796;4.994;2023-08-06T06:13:47;14.25;;;3.67;;
48665;SDS011;34452;50.796;4.994;2023-08-06T06:16:24;8.55;;;3.10;;
48665;SDS011;34452;50.796;4.994;2023-08-06T06:18:49;8.07;;;3.10;;
48665;SDS011;34452;50.796;4.994;2023-08-06T06:21:15;7.57;;;3.20;;
48665;SDS011;34452;50.796;4.994;2023-08-06T06:23:41;10.95;;;3.00;;
48665;SDS011;34452;50.796;4.994;2023-08-06T06:26:07;8.07;;;2.80;;
48665;SDS011;34452;50.796;4.994;2023-08-06T06:28:32;6.95;;;2.95;;
48665;SDS011;34452;50.796;4.994;2023-08-06T06:31:00;6.77;;;2.30;;
48665;SDS011;34452;50.796;4.994;2023-08-06T06:33:26;10.80;;;2.28;;
48665;SDS011;34452;50.796;4.994;2023-08-06T06:35:52;7.75;;;2.30;;
48665;SDS011;34452;50.796;4.994;2023-08-06T06:38:18;5.05;;;2.10;;
48665;SDS011;34452;50.796;4.994;2023-08-06T06:40:44;6.47;;;2.30;;
48665;SDS011;34452;50.796;4.994;2023-08-06T06:43:18;5.10;;;2.00;;
48665;SDS011;34452;50.796;4.994;2023-08-06T06:45:43;7.05;;;2.53;;
48665;SDS011;34452;50.796;4.994;2023-08-06T06:48:09;9.48;;;2.35;;
48665;SDS011;34452;50.796;4.994;2023-08-06T06:50:35;4.97;;;2.38;;
48665;SDS011;34452;50.796;4.994;2023-08-06T06:53:01;6.38;;;2.65;;
48665;SDS011;34452;50.796;4.994;2023-08-06T06:55:27;7.13;;;2.88;;
48665;SDS011;34452;50.796;4.994;2023-08-06T06:57:53;7.43;;;2.70;;
48665;SDS011;34452;50.796;4.994;2023-08-06T07:00:18;8.47;;;2.07;;
48665;SDS011;34452;50.796;4.994;2023-08-06T07:02:44;9.65;;;2.30;;
48665;SDS011;34452;50.796;4.994;2023-08-06T07:05:10;9.30;;;2.13;;
48665;SDS011;34452;50.796;4.994;2023-08-06T07:07:35;6.65;;;1.90;;
48665;SDS011;34452;50.796;4.994;2023-08-06T07:10:02;4.95;;;1.92;;
48665;SDS011;34452;50.796;4.994;2023-08-06T07:12:28;6.30;;;1.75;;
48665;SDS011;34452;50.796;4.994;2023-08-06T07:14:54;8.32;;;2.03;;
48665;SDS011;34452;50.796;4.994;2023-08-06T07:17:20;10.10;;;2.70;;
48665;SDS011;34452;50.796;4.994;2023-08-06T07:19:46;13.88;;;2.72;;
48665;SDS011;34452;50.796;4.994;2023-08-06T07:22:11;6.03;;;2.35;;
48665;SDS011;34452;50.796;4.994;2023-08-06T07:24:37;7.87;;;2.57;;
48665;SDS011;34452;50.796;4.994;2023-08-06T07:27:03;9.82;;;2.58;;
48665;SDS011;34452;50.796;4.994;2023-08-06T07:29:29;16.27;;;3.40;;
48665;SDS011;34452;50.796;4.994;2023-08-06T07:31:54;13.10;;;3.13;;
48665;SDS011;34452;50.796;4.994;2023-08-06T07:34:20;10.88;;;2.92;;
48665;SDS011;34452;50.796;4.994;2023-08-06T07:36:46;8.95;;;2.80;;
48665;SDS011;34452;50.796;4.994;2023-08-06T07:39:12;8.07;;;2.67;;
48665;SDS011;34452;50.796;4.994;2023-08-06T07:41:38;9.88;;;2.67;;
48665;SDS011;34452;50.796;4.994;2023-08-06T07:44:04;10.48;;;2.80;;
48665;SDS011;34452;50.796;4.994;2023-08-06T07:46:29;16.27;;;3.35;;
48665;SDS011;34452;50.796;4.994;2023-08-06T07:48:55;11.73;;;2.92;;
48665;SDS011;34452;50.796;4.994;2023-08-06T07:51:21;9.40;;;2.83;;
48665;SDS011;34452;50.796;4.994;2023-08-06T07:53:47;9.90;;;3.20;;
48665;SDS011;34452;50.796;4.994;2023-08-06T07:56:12;14.13;;;3.38;;
48665;SDS011;34452;50.796;4.994;2023-08-06T07:58:38;14.90;;;3.53;;
48665;SDS011;34452;50.796;4.994;2023-08-06T08:01:05;9.23;;;2.83;;
48665;SDS011;34452;50.796;4.994;2023-08-06T08:03:32;10.05;;;2.80;;
48665;SDS011;34452;50.796;4.994;2023-08-06T08:05:58;9.82;;;3.58;;
48665;SDS011;34452;50.796;4.994;2023-08-06T08:08:24;13.52;;;2.97;;
48665;SDS011;34452;50.796;4.994;2023-08-06T08:10:49;8.70;;;2.25;;
48665;SDS011;34452;50.796;4.994;2023-08-06T08:13:15;12.55;;;2.33;;
48665;SDS011;34452;50.796;4.994;2023-08-06T08:15:41;10.05;;;2.28;;
48665;SDS011;34452;50.796;4.994;2023-08-06T08:18:07;19.35;;;2.58;;
48665;SDS011;34452;50.796;4.994;2023-08-06T08:20:33;9.43;;;2.30;;
48665;SDS011;34452;50.796;4.994;2023-08-06T08:23:00;16.10;;;2.65;;
48665;SDS011;34452;50.796;4.994;2023-08-06T08:25:26;10.13;;;2.33;;
48665;SDS011;34452;50.796;4.994;2023-08-06T08:27:53;6.97;;;1.77;;
48665;SDS011;34452;50.796;4.994;2023-08-06T08:30:20;11.32;;;1.60;;
48665;SDS011;34452;50.796;4.994;2023-08-06T08:32:46;14.40;;;1.95;;
48665;SDS011;34452;50.796;4.994;2023-08-06T08:37:38;13.43;;;1.92;;
48665;SDS011;34452;50.796;4.994;2023-08-06T08:40:05;14.65;;;1.83;;
48665;SDS011;34452;50.796;4.994;2023-08-06T08:42:31;14.18;;;2.13;;
48665;SDS011;34452;50.796;4.994;2023-08-06T08:44:57;10.75;;;1.55;;
48665;SDS011;34452;50.796;4.994;2023-08-06T08:47:24;21.92;;;2.90;;
48665;SDS011;34452;50.796;4.994;2023-08-06T08:49:52;7.93;;;1.98;;
48665;SDS011;34452;50.796;4.994;2023-08-06T08:52:19;10.48;;;1.83;;
48665;SDS011;34452;50.796;4.994;2023-08-06T08:54:46;12.18;;;1.30;;
48665;SDS011;34452;50.796;4.994;2023-08-06T08:57:16;12.70;;;2.88;;
48665;SDS011;34452;50.796;4.994;2023-08-06T08:59:42;14.07;;;2.03;;
48665;SDS011;34452;50.796;4.994;2023-08-06T09:02:09;12.85;;;2.50;;
48665;SDS011;34452;50.796;4.994;2023-08-06T09:04:37;8.13;;;1.92;;
48665;SDS011;34452;50.796;4.994;2023-08-06T09:07:05;12.30;;;2.00;;
48665;SDS011;34452;50.796;4.994;2023-08-06T09:09:33;14.65;;;1.73;;
48665;SDS011;34452;50.796;4.994;2023-08-06T09:12:18;10.05;;;1.90;;
48665;SDS011;34452;50.796;4.994;2023-08-06T09:14:44;9.25;;;1.70;;
48665;SDS011;34452;50.796;4.994;2023-08-06T09:17:10;18.42;;;2.17;;
48665;SDS011;34452;50.796;4.994;2023-08-06T09:19:36;8.77;;;1.75;;
48665;SDS011;34452;50.796;4.994;2023-08-06T09:22:02;9.15;;;1.77;;
48665;SDS011;34452;50.796;4.994;2023-08-06T09:24:28;10.25;;;1.83;;
48665;SDS011;34452;50.796;4.994;2023-08-06T09:26:54;12.48;;;1.95;;
48665;SDS011;34452;50.796;4.994;2023-08-06T09:29:20;12.15;;;1.80;;
48665;SDS011;34452;50.796;4.994;2023-08-06T09:31:47;12.00;;;1.67;;
48665;SDS011;34452;50.796;4.994;2023-08-06T09:34:24;10.15;;;1.35;;
48665;SDS011;34452;50.796;4.994;2023-08-06T09:36:52;15.93;;;2.40;;
48665;SDS011;34452;50.796;4.994;2023-08-06T09:39:20;12.20;;;1.55;;
48665;SDS011;34452;50.796;4.994;2023-08-06T09:41:47;7.65;;;1.55;;
48665;SDS011;34452;50.796;4.994;2023-08-06T09:44:15;10.02;;;1.30;;
48665;SDS011;34452;50.796;4.994;2023-08-06T09:46:42;9.80;;;1.65;;
48665;SDS011;34452;50.796;4.994;2023-08-06T09:49:12;9.50;;;1.50;;
48665;SDS011;34452;50.796;4.994;2023-08-06T09:51:37;7.90;;;1.50;;
48665;SDS011;34452;50.796;4.994;2023-08-06T09:54:05;12.38;;;1.67;;
48665;SDS011;34452;50.796;4.994;2023-08-06T09:56:33;7.85;;;1.35;;
48665;SDS011;34452;50.796;4.994;2023-08-06T09:59:04;8.00;;;1.33;;
48665;SDS011;34452;50.796;4.994;2023-08-06T10:01:32;14.32;;;2.42;;
48665;SDS011;34452;50.796;4.994;2023-08-06T10:04:00;9.32;;;1.92;;
48665;SDS011;34452;50.796;4.994;2023-08-06T10:06:46;11.77;;;1.73;;
48665;SDS011;34452;50.796;4.994;2023-08-06T10:09:13;9.82;;;1.77;;
48665;SDS011;34452;50.796;4.994;2023-08-06T10:11:39;7.53;;;1.30;;
48665;SDS011;34452;50.796;4.994;2023-08-06T10:14:08;5.88;;;1.27;;
48665;SDS011;34452;50.796;4.994;2023-08-06T10:16:47;6.57;;;1.45;;
48665;SDS011;34452;50.796;4.994;2023-08-06T10:21:40;8.50;;;1.35;;
48665;SDS011;34452;50.796;4.994;2023-08-06T10:24:06;6.90;;;1.67;;
48665;SDS011;34452;50.796;4.994;2023-08-06T10:26:45;6.38;;;1.30;;
48665;SDS011;34452;50.796;4.994;2023-08-06T10:32:15;4.93;;;1.10;;
48665;SDS011;34452;50.796;4.994;2023-08-06T10:37:37;5.47;;;1.40;;
48665;SDS011;34452;50.796;4.994;2023-08-06T10:40:04;7.93;;;1.10;;
48665;SDS011;34452;50.796;4.994;2023-08-06T10:42:32;7.60;;;1.55;;
48665;SDS011;34452;50.796;4.994;2023-08-06T10:45:10;3.90;;;0.73;;
48665;SDS011;34452;50.796;4.994;2023-08-06T10:47:39;6.95;;;1.27;;
48665;SDS011;34452;50.796;4.994;2023-08-06T10:50:06;3.92;;;1.05;;
48665;SDS011;34452;50.796;4.994;2023-08-06T10:52:34;4.45;;;1.00;;
48665;SDS011;34452;50.796;4.994;2023-08-06T10:54:59;7.40;;;2.50;;
48665;SDS011;34452;50.796;4.994;2023-08-06T10:57:25;3.42;;;1.20;;
48665;SDS011;34452;50.796;4.994;2023-08-06T10:59:51;8.18;;;1.65;;
48665;SDS011;34452;50.796;4.994;2023-08-06T11:02:17;6.68;;;1.50;;
48665;SDS011;34452;50.796;4.994;2023-08-06T11:04:43;8.45;;;1.60;;
48665;SDS011;34452;50.796;4.994;2023-08-06T11:07:08;10.40;;;1.83;;
48665;SDS011;34452;50.796;4.994;2023-08-06T11:09:34;5.63;;;1.50;;
48665;SDS011;34452;50.796;4.994;2023-08-06T11:12:00;15.93;;;1.70;;
48665;SDS011;34452;50.796;4.994;2023-08-06T11:14:26;6.97;;;1.27;;
48665;SDS011;34452;50.796;4.994;2023-08-06T11:16:52;9.13;;;2.00;;
48665;SDS011;34452;50.796;4.994;2023-08-06T11:19:17;13.23;;;1.73;;
48665;SDS011;34452;50.796;4.994;2023-08-06T11:21:43;4.75;;;1.30;;
48665;SDS011;34452;50.796;4.994;2023-08-06T11:24:10;10.25;;;1.95;;
48665;SDS011;34452;50.796;4.994;2023-08-06T11:26:36;9.80;;;1.80;;
48665;SDS011;34452;50.796;4.994;2023-08-06T11:29:03;13.57;;;2.28;;
48665;SDS011;34452;50.796;4.994;2023-08-06T11:31:29;10.48;;;2.00;;
48665;SDS011;34452;50.796;4.994;2023-08-06T11:33:55;10.35;;;2.13;;
48665;SDS011;34452;50.796;4.994;2023-08-06T11:36:33;8.23;;;1.70;;
48665;SDS011;34452;50.796;4.994;2023-08-06T11:39:01;7.65;;;1.58;;
48665;SDS011;34452;50.796;4.994;2023-08-06T11:41:29;10.43;;;1.83;;
48665;SDS011;34452;50.796;4.994;2023-08-06T11:43:55;6.18;;;2.25;;
48665;SDS011;34452;50.796;4.994;2023-08-06T11:46:21;7.00;;;1.25;;
48665;SDS011;34452;50.796;4.994;2023-08-06T11:51:32;7.85;;;1.80;;
48665;SDS011;34452;50.796;4.994;2023-08-06T11:53:58;13.60;;;3.15;;
48665;SDS011;34452;50.796;4.994;2023-08-06T11:58:51;10.98;;;1.52;;
48665;SDS011;34452;50.796;4.994;2023-08-06T12:01:17;7.75;;;1.60;;
48665;SDS011;34452;50.796;4.994;2023-08-06T12:06:09;7.13;;;1.73;;
48665;SDS011;34452;50.796;4.994;2023-08-06T12:08:34;13.60;;;2.13;;
48665;SDS011;34452;50.796;4.994;2023-08-06T12:11:00;17.92;;;1.83;;
48665;SDS011;34452;50.796;4.994;2023-08-06T12:13:26;9.60;;;1.50;;
48665;SDS011;34452;50.796;4.994;2023-08-06T12:15:53;9.43;;;2.03;;
48665;SDS011;34452;50.796;4.994;2023-08-06T12:18:19;7.30;;;1.92;;
48665;SDS011;34452;50.796;4.994;2023-08-06T12:20:45;10.68;;;1.50;;
48665;SDS011;34452;50.796;4.994;2023-08-06T12:23:11;6.22;;;1.15;;
48665;SDS011;34452;50.796;4.994;2023-08-06T12:25:40;9.20;;;1.63;;
48665;SDS011;34452;50.796;4.994;2023-08-06T12:30:33;6.35;;;1.17;;
48665;SDS011;34452;50.796;4.994;2023-08-06T12:32:59;7.40;;;1.25;;
48665;SDS011;34452;50.796;4.994;2023-08-06T12:35:25;4.90;;;1.40;;
48665;SDS011;34452;50.796;4.994;2023-08-06T12:40:19;11.45;;;1.73;;
48665;SDS011;34452;50.796;4.994;2023-08-06T12:45:11;5.50;;;1.40;;
48665;SDS011;34452;50.796;4.994;2023-08-06T12:47:37;12.43;;;1.38;;
48665;SDS011;34452;50.796;4.994;2023-08-06T12:50:03;6.77;;;1.20;;
48665;SDS011;34452;50.796;4.994;2023-08-06T12:52:29;7.22;;;1.67;;
48665;SDS011;34452;50.796;4.994;2023-08-06T12:54:54;10.52;;;1.85;;
48665;SDS011;34452;50.796;4.994;2023-08-06T12:57:20;7.22;;;1.52;;
48665;SDS011;34452;50.796;4.994;2023-08-06T12:59:46;11.80;;;2.00;;
48665;SDS011;34452;50.796;4.994;2023-08-06T13:02:13;10.80;;;1.88;;
48665;SDS011;34452;50.796;4.994;2023-08-06T13:04:38;7.75;;;1.63;;
48665;SDS011;34452;50.796;4.994;2023-08-06T13:07:04;8.73;;;1.40;;
48665;SDS011;34452;50.796;4.994;2023-08-06T13:09:31;20.92;;;2.03;;
48665;SDS011;34452;50.796;4.994;2023-08-06T13:11:57;4.63;;;1.30;;
48665;SDS011;34452;50.796;4.994;2023-08-06T13:14:24;10.27;;;1.90;;
48665;SDS011;34452;50.796;4.994;2023-08-06T13:16:50;18.95;;;2.53;;
48665;SDS011;34452;50.796;4.994;2023-08-06T13:19:16;13.40;;;1.75;;
48665;SDS011;34452;50.796;4.994;2023-08-06T13:24:29;5.28;;;1.50;;
48665;SDS011;34452;50.796;4.994;2023-08-06T13:26:55;16.95;;;1.77;;
48665;SDS011;34452;50.796;4.994;2023-08-06T13:29:20;10.65;;;2.20;;
48665;SDS011;34452;50.796;4.994;2023-08-06T13:31:46;7.10;;;1.25;;
48665;SDS011;34452;50.796;4.994;2023-08-06T13:34:12;8.95;;;1.52;;
48665;SDS011;34452;50.796;4.994;2023-08-06T13:36:38;8.25;;;1.40;;
48665;SDS011;34452;50.796;4.994;2023-08-06T13:39:03;6.38;;;1.48;;
48665;SDS011;34452;50.796;4.994;2023-08-06T13:41:30;9.38;;;1.38;;
48665;SDS011;34452;50.796;4.994;2023-08-06T13:43:56;12.10;;;1.42;;
48665;SDS011;34452;50.796;4.994;2023-08-06T13:46:22;5.20;;;1.40;;
48665;SDS011;34452;50.796;4.994;2023-08-06T13:48:48;4.45;;;0.93;;
48665;SDS011;34452;50.796;4.994;2023-08-06T13:51:32;7.85;;;1.63;;
48665;SDS011;34452;50.796;4.994;2023-08-06T13:54:00;10.77;;;1.95;;
48665;SDS011;34452;50.796;4.994;2023-08-06T13:56:26;5.93;;;1.40;;
48665;SDS011;34452;50.796;4.994;2023-08-06T13:58:52;10.38;;;2.03;;
48665;SDS011;34452;50.796;4.994;2023-08-06T14:01:18;6.75;;;2.13;;
48665;SDS011;34452;50.796;4.994;2023-08-06T14:03:44;8.70;;;1.58;;
48665;SDS011;34452;50.796;4.994;2023-08-06T14:06:10;12.90;;;1.45;;
48665;SDS011;34452;50.796;4.994;2023-08-06T14:08:36;6.90;;;1.42;;
48665;SDS011;34452;50.796;4.994;2023-08-06T14:11:02;6.82;;;1.20;;
48665;SDS011;34452;50.796;4.994;2023-08-06T14:13:27;9.30;;;1.77;;
48665;SDS011;34452;50.796;4.994;2023-08-06T14:15:53;4.43;;;1.30;;
48665;SDS011;34452;50.796;4.994;2023-08-06T14:18:19;14.00;;;2.75;;
48665;SDS011;34452;50.796;4.994;2023-08-06T14:20:44;8.65;;;1.58;;
48665;SDS011;34452;50.796;4.994;2023-08-06T14:23:10;7.53;;;1.05;;
48665;SDS011;34452;50.796;4.994;2023-08-06T14:28:03;10.70;;;1.88;;
48665;SDS011;34452;50.796;4.994;2023-08-06T14:30:29;8.63;;;1.55;;
48665;SDS011;34452;50.796;4.994;2023-08-06T14:32:54;10.07;;;2.17;;
48665;SDS011;34452;50.796;4.994;2023-08-06T14:35:20;10.63;;;1.88;;
48665;SDS011;34452;50.796;4.994;2023-08-06T14:37:47;10.35;;;2.00;;
48665;SDS011;34452;50.796;4.994;2023-08-06T14:40:13;14.05;;;2.25;;
48665;SDS011;34452;50.796;4.994;2023-08-06T14:42:38;7.93;;;1.83;;
48665;SDS011;34452;50.796;4.994;2023-08-06T14:45:04;4.15;;;1.25;;
48665;SDS011;34452;50.796;4.994;2023-08-06T14:47:31;7.75;;;1.50;;
48665;SDS011;34452;50.796;4.994;2023-08-06T14:49:56;13.85;;;2.30;;
48665;SDS011;34452;50.796;4.994;2023-08-06T14:52:22;9.02;;;1.58;;
48665;SDS011;34452;50.796;4.994;2023-08-06T14:54:48;10.75;;;2.13;;
48665;SDS011;34452;50.796;4.994;2023-08-06T14:57:17;8.75;;;1.70;;
48665;SDS011;34452;50.796;4.994;2023-08-06T14:59:43;11.65;;;1.83;;
48665;SDS011;34452;50.796;4.994;2023-08-06T15:02:08;10.85;;;1.50;;
48665;SDS011;34452;50.796;4.994;2023-08-06T15:04:34;9.48;;;1.80;;
48665;SDS011;34452;50.796;4.994;2023-08-06T15:07:00;7.70;;;1.80;;
48665;SDS011;34452;50.796;4.994;2023-08-06T15:09:25;11.17;;;2.30;;
48665;SDS011;34452;50.796;4.994;2023-08-06T15:11:51;14.90;;;2.13;;
48665;SDS011;34452;50.796;4.994;2023-08-06T15:14:17;9.43;;;1.77;;
48665;SDS011;34452;50.796;4.994;2023-08-06T15:16:43;9.60;;;1.70;;
48665;SDS011;34452;50.796;4.994;2023-08-06T15:19:11;12.13;;;2.63;;
48665;SDS011;34452;50.796;4.994;2023-08-06T15:21:37;16.45;;;2.17;;
48665;SDS011;34452;50.796;4.994;2023-08-06T15:24:02;11.85;;;2.03;;
48665;SDS011;34452;50.796;4.994;2023-08-06T15:26:28;19.70;;;2.60;;
48665;SDS011;34452;50.796;4.994;2023-08-06T15:28:54;13.90;;;2.83;;
48665;SDS011;34452;50.796;4.994;2023-08-06T15:31:22;17.40;;;2.72;;